sensor_id;sensor_type;location;lat;lon;timestamp;P1;durP1;ratioP1;P2;durP2;ratioP2
11171;SDS011;5642;50.830;12.082;2023-04-24T00:00:43;0.45;;;0.45;;
11171;SDS011;5642;50.830;12.082;2023-04-24T00:03:10;0.60;;;0.60;;
11171;SDS011;5642;50.830;12.082;2023-04-24T00:05:37;0.60;;;0.60;;
11171;SDS011;5642;50.830;12.082;2023-04-24T00:08:07;1.00;;;0.70;;
11171;SDS011;5642;50.830;12.082;2023-04-24T00:10:33;0.60;;;0.60;;
11171;SDS011;5642;50.830;12.082;2023-04-24T00:12:59;0.60;;;0.60;;
11171;SDS011;5642;50.830;12.082;2023-04-24T00:15:25;0.60;;;0.60;;
11171;SDS011;5642;50.830;12.082;2023-04-24T00:17:51;0.50;;;0.50;;
11171;SDS011;5642;50.830;12.082;2023-04-24T00:20:18;0.60;;;0.60;;
11171;SDS011;5642;50.830;12.082;2023-04-24T00:22:46;0.60;;;0.60;;
11171;SDS011;5642;50.830;12.082;2023-04-24T00:25:12;0.57;;;0.57;;
11171;SDS011;5642;50.830;12.082;2023-04-24T00:27:39;0.40;;;0.40;;
11171;SDS011;5642;50.830;12.082;2023-04-24T00:30:05;0.60;;;0.60;;
11171;SDS011;5642;50.830;12.082;2023-04-24T00:32:32;0.60;;;0.60;;
11171;SDS011;5642;50.830;12.082;2023-04-24T00:34:58;0.43;;;0.43;;
11171;SDS011;5642;50.830;12.082;2023-04-24T00:37:24;0.57;;;0.57;;
11171;SDS011;5642;50.830;12.082;2023-04-24T00:39:50;0.77;;;0.60;;
11171;SDS011;5642;50.830;12.082;2023-04-24T00:42:17;0.52;;;0.50;;
11171;SDS011;5642;50.830;12.082;2023-04-24T00:44:44;0.60;;;0.60;;
11171;SDS011;5642;50.830;12.082;2023-04-24T00:47:10;0.60;;;0.60;;
11171;SDS011;5642;50.830;12.082;2023-04-24T00:49:38;0.60;;;0.60;;
11171;SDS011;5642;50.830;12.082;2023-04-24T00:52:04;0.50;;;0.50;;
11171;SDS011;5642;50.830;12.082;2023-04-24T00:54:37;0.40;;;0.40;;
11171;SDS011;5642;50.830;12.082;2023-04-24T00:57:03;0.50;;;0.50;;
11171;SDS011;5642;50.830;12.082;2023-04-24T00:59:31;0.45;;;0.45;;
11171;SDS011;5642;50.830;12.082;2023-04-24T01:01:58;0.50;;;0.50;;
11171;SDS011;5642;50.830;12.082;2023-04-24T01:04:25;1.65;;;0.50;;
11171;SDS011;5642;50.830;12.082;2023-04-24T01:06:53;0.60;;;0.60;;
11171;SDS011;5642;50.830;12.082;2023-04-24T01:09:21;0.60;;;0.60;;
11171;SDS011;5642;50.830;12.082;2023-04-24T01:11:49;0.50;;;0.50;;
11171;SDS011;5642;50.830;12.082;2023-04-24T01:14:16;0.40;;;0.40;;
11171;SDS011;5642;50.830;12.082;2023-04-24T01:16:43;1.35;;;0.55;;
11171;SDS011;5642;50.830;12.082;2023-04-24T01:19:09;0.32;;;0.32;;
11171;SDS011;5642;50.830;12.082;2023-04-24T01:21:37;0.40;;;0.40;;
11171;SDS011;5642;50.830;12.082;2023-04-24T01:24:05;0.40;;;0.40;;
11171;SDS011;5642;50.830;12.082;2023-04-24T01:26:32;0.50;;;0.50;;
11171;SDS011;5642;50.830;12.082;2023-04-24T01:28:59;2.47;;;0.65;;
11171;SDS011;5642;50.830;12.082;2023-04-24T01:31:25;0.50;;;0.50;;
11171;SDS011;5642;50.830;12.082;2023-04-24T01:33:52;0.50;;;0.50;;
11171;SDS011;5642;50.830;12.082;2023-04-24T01:36:20;0.52;;;0.43;;
11171;SDS011;5642;50.830;12.082;2023-04-24T01:38:48;0.52;;;0.52;;
11171;SDS011;5642;50.830;12.082;2023-04-24T01:41:14;0.40;;;0.40;;
11171;SDS011;5642;50.830;12.082;2023-04-24T01:43:43;0.30;;;0.30;;
11171;SDS011;5642;50.830;12.082;2023-04-24T01:46:09;0.60;;;0.60;;
11171;SDS011;5642;50.830;12.082;2023-04-24T01:48:36;0.40;;;0.40;;
11171;SDS011;5642;50.830;12.082;2023-04-24T01:51:02;0.50;;;0.50;;
11171;SDS011;5642;50.830;12.082;2023-04-24T01:53:29;0.50;;;0.50;;
11171;SDS011;5642;50.830;12.082;2023-04-24T01:55:55;0.50;;;0.50;;
11171;SDS011;5642;50.830;12.082;2023-04-24T01:58:22;0.60;;;0.60;;
11171;SDS011;5642;50.830;12.082;2023-04-24T02:00:48;0.50;;;0.50;;
11171;SDS011;5642;50.830;12.082;2023-04-24T02:03:14;0.63;;;0.63;;
11171;SDS011;5642;50.830;12.082;2023-04-24T02:05:43;0.50;;;0.50;;
11171;SDS011;5642;50.830;12.082;2023-04-24T02:08:10;0.50;;;0.50;;
11171;SDS011;5642;50.830;12.082;2023-04-24T02:10:36;0.65;;;0.65;;
11171;SDS011;5642;50.830;12.082;2023-04-24T02:13:04;0.40;;;0.40;;
11171;SDS011;5642;50.830;12.082;2023-04-24T02:15:30;0.57;;;0.50;;
11171;SDS011;5642;50.830;12.082;2023-04-24T02:17:56;0.47;;;0.47;;
11171;SDS011;5642;50.830;12.082;2023-04-24T02:20:24;0.70;;;0.70;;
11171;SDS011;5642;50.830;12.082;2023-04-24T02:22:51;0.63;;;0.60;;
11171;SDS011;5642;50.830;12.082;2023-04-24T02:25:17;0.60;;;0.52;;
11171;SDS011;5642;50.830;12.082;2023-04-24T02:27:43;0.57;;;0.50;;
11171;SDS011;5642;50.830;12.082;2023-04-24T02:30:09;0.60;;;0.50;;
11171;SDS011;5642;50.830;12.082;2023-04-24T02:32:36;0.47;;;0.47;;
11171;SDS011;5642;50.830;12.082;2023-04-24T02:35:02;0.50;;;0.50;;
11171;SDS011;5642;50.830;12.082;2023-04-24T02:37:28;0.55;;;0.55;;
11171;SDS011;5642;50.830;12.082;2023-04-24T02:39:55;0.57;;;0.57;;
11171;SDS011;5642;50.830;12.082;2023-04-24T02:42:21;0.50;;;0.50;;
11171;SDS011;5642;50.830;12.082;2023-04-24T02:44:47;0.85;;;0.50;;
11171;SDS011;5642;50.830;12.082;2023-04-24T02:47:13;0.73;;;0.40;;
11171;SDS011;5642;50.830;12.082;2023-04-24T02:49:43;0.38;;;0.38;;
11171;SDS011;5642;50.830;12.082;2023-04-24T02:52:09;0.60;;;0.60;;
11171;SDS011;5642;50.830;12.082;2023-04-24T02:54:35;0.45;;;0.45;;
11171;SDS011;5642;50.830;12.082;2023-04-24T02:57:05;0.95;;;0.40;;
11171;SDS011;5642;50.830;12.082;2023-04-24T02:59:31;0.55;;;0.55;;
11171;SDS011;5642;50.830;12.082;2023-04-24T03:01:57;0.50;;;0.50;;
11171;SDS011;5642;50.830;12.082;2023-04-24T03:04:24;0.50;;;0.50;;
11171;SDS011;5642;50.830;12.082;2023-04-24T03:06:50;0.63;;;0.63;;
11171;SDS011;5642;50.830;12.082;2023-04-24T03:09:18;0.52;;;0.50;;
11171;SDS011;5642;50.830;12.082;2023-04-24T03:11:45;0.65;;;0.63;;
11171;SDS011;5642;50.830;12.082;2023-04-24T03:14:11;0.70;;;0.70;;
11171;SDS011;5642;50.830;12.082;2023-04-24T03:16:37;0.60;;;0.60;;
11171;SDS011;5642;50.830;12.082;2023-04-24T03:19:04;0.50;;;0.50;;
11171;SDS011;5642;50.830;12.082;2023-04-24T03:21:33;0.55;;;0.55;;
11171;SDS011;5642;50.830;12.082;2023-04-24T03:24:01;0.65;;;0.65;;
11171;SDS011;5642;50.830;12.082;2023-04-24T03:26:27;0.88;;;0.60;;
11171;SDS011;5642;50.830;12.082;2023-04-24T03:28:53;0.47;;;0.40;;
11171;SDS011;5642;50.830;12.082;2023-04-24T03:31:20;0.73;;;0.73;;
11171;SDS011;5642;50.830;12.082;2023-04-24T03:33:51;0.60;;;0.60;;
11171;SDS011;5642;50.830;12.082;2023-04-24T03:36:17;0.50;;;0.50;;
11171;SDS011;5642;50.830;12.082;2023-04-24T03:38:45;0.60;;;0.60;;
11171;SDS011;5642;50.830;12.082;2023-04-24T03:41:11;0.82;;;0.60;;
11171;SDS011;5642;50.830;12.082;2023-04-24T03:43:37;0.60;;;0.60;;
11171;SDS011;5642;50.830;12.082;2023-04-24T03:46:04;1.17;;;0.90;;
11171;SDS011;5642;50.830;12.082;2023-04-24T03:48:33;0.70;;;0.70;;
11171;SDS011;5642;50.830;12.082;2023-04-24T03:50:59;0.60;;;0.60;;
11171;SDS011;5642;50.830;12.082;2023-04-24T03:53:25;0.65;;;0.65;;
11171;SDS011;5642;50.830;12.082;2023-04-24T03:55:52;0.70;;;0.70;;
11171;SDS011;5642;50.830;12.082;2023-04-24T03:58:18;0.50;;;0.50;;
11171;SDS011;5642;50.830;12.082;2023-04-24T04:00:45;0.70;;;0.70;;
11171;SDS011;5642;50.830;12.082;2023-04-24T04:03:13;0.70;;;0.70;;
11171;SDS011;5642;50.830;12.082;2023-04-24T04:05:40;0.80;;;0.80;;
11171;SDS011;5642;50.830;12.082;2023-04-24T04:08:06;0.70;;;0.70;;
11171;SDS011;5642;50.830;12.082;2023-04-24T04:10:32;1.20;;;0.82;;
11171;SDS011;5642;50.830;12.082;2023-04-24T04:12:58;0.70;;;0.70;;
11171;SDS011;5642;50.830;12.082;2023-04-24T04:15:25;0.60;;;0.60;;
11171;SDS011;5642;50.830;12.082;2023-04-24T04:17:51;1.05;;;0.50;;
11171;SDS011;5642;50.830;12.082;2023-04-24T04:20:17;0.43;;;0.43;;
11171;SDS011;5642;50.830;12.082;2023-04-24T04:22:44;0.70;;;0.70;;
11171;SDS011;5642;50.830;12.082;2023-04-24T04:25:10;0.88;;;0.70;;
11171;SDS011;5642;50.830;12.082;2023-04-24T04:27:37;0.60;;;0.60;;
11171;SDS011;5642;50.830;12.082;2023-04-24T04:30:03;0.60;;;0.60;;
11171;SDS011;5642;50.830;12.082;2023-04-24T04:32:33;0.60;;;0.60;;
11171;SDS011;5642;50.830;12.082;2023-04-24T04:35:03;0.60;;;0.60;;
11171;SDS011;5642;50.830;12.082;2023-04-24T04:37:30;0.65;;;0.65;;
11171;SDS011;5642;50.830;12.082;2023-04-24T04:39:58;0.60;;;0.60;;
11171;SDS011;5642;50.830;12.082;2023-04-24T04:42:28;0.60;;;0.60;;
11171;SDS011;5642;50.830;12.082;2023-04-24T04:44:54;0.70;;;0.70;;
11171;SDS011;5642;50.830;12.082;2023-04-24T04:47:23;0.65;;;0.65;;
11171;SDS011;5642;50.830;12.082;2023-04-24T04:49:49;0.80;;;0.80;;
11171;SDS011;5642;50.830;12.082;2023-04-24T04:52:19;0.68;;;0.68;;
11171;SDS011;5642;50.830;12.082;2023-04-24T04:54:46;0.65;;;0.65;;
11171;SDS011;5642;50.830;12.082;2023-04-24T04:57:12;0.70;;;0.70;;
11171;SDS011;5642;50.830;12.082;2023-04-24T04:59:38;0.65;;;0.65;;
11171;SDS011;5642;50.830;12.082;2023-04-24T05:02:06;1.08;;;0.73;;
11171;SDS011;5642;50.830;12.082;2023-04-24T05:04:32;0.60;;;0.60;;
11171;SDS011;5642;50.830;12.082;2023-04-24T05:06:58;0.63;;;0.63;;
11171;SDS011;5642;50.830;12.082;2023-04-24T05:09:30;1.08;;;1.00;;
11171;SDS011;5642;50.830;12.082;2023-04-24T05:11:56;0.77;;;0.77;;
11171;SDS011;5642;50.830;12.082;2023-04-24T05:14:22;0.90;;;0.90;;
11171;SDS011;5642;50.830;12.082;2023-04-24T05:16:48;0.90;;;0.90;;
11171;SDS011;5642;50.830;12.082;2023-04-24T05:19:14;0.80;;;0.80;;
11171;SDS011;5642;50.830;12.082;2023-04-24T05:21:41;1.63;;;0.98;;
11171;SDS011;5642;50.830;12.082;2023-04-24T05:24:07;1.85;;;0.80;;
11171;SDS011;5642;50.830;12.082;2023-04-24T05:26:33;0.90;;;0.90;;
11171;SDS011;5642;50.830;12.082;2023-04-24T05:28:59;0.80;;;0.80;;
11171;SDS011;5642;50.830;12.082;2023-04-24T05:31:26;0.77;;;0.77;;
11171;SDS011;5642;50.830;12.082;2023-04-24T05:33:51;0.70;;;0.70;;
11171;SDS011;5642;50.830;12.082;2023-04-24T05:36:17;0.73;;;0.73;;
11171;SDS011;5642;50.830;12.082;2023-04-24T05:38:59;4.43;;;0.85;;
11171;SDS011;5642;50.830;12.082;2023-04-24T05:41:25;0.85;;;0.85;;
11171;SDS011;5642;50.830;12.082;2023-04-24T05:43:51;0.70;;;0.70;;
11171;SDS011;5642;50.830;12.082;2023-04-24T05:46:17;0.70;;;0.70;;
11171;SDS011;5642;50.830;12.082;2023-04-24T05:48:43;0.70;;;0.70;;
11171;SDS011;5642;50.830;12.082;2023-04-24T05:51:09;0.60;;;0.60;;
11171;SDS011;5642;50.830;12.082;2023-04-24T05:53:36;0.65;;;0.65;;
11171;SDS011;5642;50.830;12.082;2023-04-24T05:56:02;0.52;;;0.50;;
11171;SDS011;5642;50.830;12.082;2023-04-24T05:58:28;0.50;;;0.50;;
11171;SDS011;5642;50.830;12.082;2023-04-24T06:00:54;0.47;;;0.47;;
11171;SDS011;5642;50.830;12.082;2023-04-24T06:03:20;0.50;;;0.50;;
11171;SDS011;5642;50.830;12.082;2023-04-24T06:05:47;1.00;;;0.90;;
11171;SDS011;5642;50.830;12.082;2023-04-24T06:08:17;0.80;;;0.70;;
11171;SDS011;5642;50.830;12.082;2023-04-24T06:10:43;0.80;;;0.57;;
11171;SDS011;5642;50.830;12.082;2023-04-24T06:13:09;0.50;;;0.50;;
11171;SDS011;5642;50.830;12.082;2023-04-24T06:15:36;0.55;;;0.55;;
11171;SDS011;5642;50.830;12.082;2023-04-24T06:18:03;0.43;;;0.43;;
11171;SDS011;5642;50.830;12.082;2023-04-24T06:20:32;0.43;;;0.43;;
11171;SDS011;5642;50.830;12.082;2023-04-24T06:22:58;0.55;;;0.55;;
11171;SDS011;5642;50.830;12.082;2023-04-24T06:25:25;0.38;;;0.38;;
11171;SDS011;5642;50.830;12.082;2023-04-24T06:27:52;0.40;;;0.40;;
11171;SDS011;5642;50.830;12.082;2023-04-24T06:30:18;0.50;;;0.50;;
11171;SDS011;5642;50.830;12.082;2023-04-24T06:32:45;1.58;;;0.60;;
11171;SDS011;5642;50.830;12.082;2023-04-24T06:35:13;0.60;;;0.60;;
11171;SDS011;5642;50.830;12.082;2023-04-24T06:37:39;0.60;;;0.60;;
11171;SDS011;5642;50.830;12.082;2023-04-24T06:40:07;0.60;;;0.60;;
11171;SDS011;5642;50.830;12.082;2023-04-24T06:42:33;0.82;;;0.50;;
11171;SDS011;5642;50.830;12.082;2023-04-24T06:45:02;0.40;;;0.30;;
11171;SDS011;5642;50.830;12.082;2023-04-24T06:47:29;1.45;;;0.60;;
11171;SDS011;5642;50.830;12.082;2023-04-24T06:49:55;0.95;;;0.50;;
11171;SDS011;5642;50.830;12.082;2023-04-24T06:52:22;0.70;;;0.70;;
11171;SDS011;5642;50.830;12.082;2023-04-24T06:54:49;1.77;;;0.60;;
11171;SDS011;5642;50.830;12.082;2023-04-24T06:57:15;1.40;;;0.57;;
11171;SDS011;5642;50.830;12.082;2023-04-24T06:59:48;0.63;;;0.63;;
11171;SDS011;5642;50.830;12.082;2023-04-24T07:02:14;0.63;;;0.63;;
11171;SDS011;5642;50.830;12.082;2023-04-24T07:04:40;0.60;;;0.60;;
11171;SDS011;5642;50.830;12.082;2023-04-24T07:07:08;1.30;;;0.50;;
11171;SDS011;5642;50.830;12.082;2023-04-24T07:09:35;0.47;;;0.40;;
11171;SDS011;5642;50.830;12.082;2023-04-24T07:12:06;0.43;;;0.40;;
11171;SDS011;5642;50.830;12.082;2023-04-24T07:14:33;0.80;;;0.60;;
11171;SDS011;5642;50.830;12.082;2023-04-24T07:17:03;1.13;;;0.50;;
11171;SDS011;5642;50.830;12.082;2023-04-24T07:19:31;0.50;;;0.50;;
11171;SDS011;5642;50.830;12.082;2023-04-24T07:22:00;0.52;;;0.47;;
11171;SDS011;5642;50.830;12.082;2023-04-24T07:24:26;0.40;;;0.40;;
11171;SDS011;5642;50.830;12.082;2023-04-24T07:26:53;0.40;;;0.40;;
11171;SDS011;5642;50.830;12.082;2023-04-24T07:29:21;0.38;;;0.35;;
11171;SDS011;5642;50.830;12.082;2023-04-24T07:31:47;0.50;;;0.40;;
11171;SDS011;5642;50.830;12.082;2023-04-24T07:34:15;1.90;;;0.40;;
11171;SDS011;5642;50.830;12.082;2023-04-24T07:36:42;0.35;;;0.35;;
11171;SDS011;5642;50.830;12.082;2023-04-24T07:39:12;0.50;;;0.50;;
11171;SDS011;5642;50.830;12.082;2023-04-24T07:41:38;0.38;;;0.38;;
11171;SDS011;5642;50.830;12.082;2023-04-24T07:44:07;0.40;;;0.40;;
11171;SDS011;5642;50.830;12.082;2023-04-24T07:46:33;0.40;;;0.40;;
11171;SDS011;5642;50.830;12.082;2023-04-24T07:48:59;0.30;;;0.30;;
11171;SDS011;5642;50.830;12.082;2023-04-24T07:51:26;0.40;;;0.40;;
11171;SDS011;5642;50.830;12.082;2023-04-24T07:53:53;0.35;;;0.32;;
11171;SDS011;5642;50.830;12.082;2023-04-24T07:56:20;0.32;;;0.20;;
11171;SDS011;5642;50.830;12.082;2023-04-24T07:58:47;0.50;;;0.40;;
11171;SDS011;5642;50.830;12.082;2023-04-24T08:01:13;0.30;;;0.30;;
11171;SDS011;5642;50.830;12.082;2023-04-24T08:03:39;0.20;;;0.20;;
11171;SDS011;5642;50.830;12.082;2023-04-24T08:06:14;0.32;;;0.32;;
11171;SDS011;5642;50.830;12.082;2023-04-24T08:08:41;0.40;;;0.40;;
11171;SDS011;5642;50.830;12.082;2023-04-24T08:11:12;0.30;;;0.30;;
11171;SDS011;5642;50.830;12.082;2023-04-24T08:13:39;0.40;;;0.40;;
11171;SDS011;5642;50.830;12.082;2023-04-24T08:16:07;0.40;;;0.40;;
11171;SDS011;5642;50.830;12.082;2023-04-24T08:18:33;0.40;;;0.40;;
11171;SDS011;5642;50.830;12.082;2023-04-24T08:21:01;0.40;;;0.40;;
11171;SDS011;5642;50.830;12.082;2023-04-24T08:23:27;0.60;;;0.57;;
11171;SDS011;5642;50.830;12.082;2023-04-24T08:25:54;0.60;;;0.50;;
11171;SDS011;5642;50.830;12.082;2023-04-24T08:28:21;0.32;;;0.32;;
11171;SDS011;5642;50.830;12.082;2023-04-24T08:30:47;0.60;;;0.45;;
11171;SDS011;5642;50.830;12.082;2023-04-24T08:33:14;0.55;;;0.30;;
11171;SDS011;5642;50.830;12.082;2023-04-24T08:35:40;0.60;;;0.60;;
11171;SDS011;5642;50.830;12.082;2023-04-24T08:38:06;0.40;;;0.40;;
11171;SDS011;5642;50.830;12.082;2023-04-24T08:40:33;0.30;;;0.30;;
11171;SDS011;5642;50.830;12.082;2023-04-24T08:43:01;0.60;;;0.43;;
11171;SDS011;5642;50.830;12.082;2023-04-24T08:45:28;0.85;;;0.50;;
11171;SDS011;5642;50.830;12.082;2023-04-24T08:47:55;0.30;;;0.30;;
11171;SDS011;5642;50.830;12.082;2023-04-24T08:50:23;0.30;;;0.30;;
11171;SDS011;5642;50.830;12.082;2023-04-24T08:52:50;1.45;;;0.40;;
11171;SDS011;5642;50.830;12.082;2023-04-24T08:55:19;0.30;;;0.30;;
11171;SDS011;5642;50.830;12.082;2023-04-24T08:57:50;0.52;;;0.52;;
11171;SDS011;5642;50.830;12.082;2023-04-24T09:00:18;0.30;;;0.30;;
11171;SDS011;5642;50.830;12.082;2023-04-24T09:02:51;0.38;;;0.38;;
11171;SDS011;5642;50.830;12.082;2023-04-24T09:05:20;0.20;;;0.20;;
11171;SDS011;5642;50.830;12.082;2023-04-24T09:07:53;0.25;;;0.25;;
11171;SDS011;5642;50.830;12.082;2023-04-24T09:10:24;0.50;;;0.38;;
11171;SDS011;5642;50.830;12.082;2023-04-24T09:13:03;0.50;;;0.30;;
11171;SDS011;5642;50.830;12.082;2023-04-24T09:15:29;0.20;;;0.20;;
11171;SDS011;5642;50.830;12.082;2023-04-24T09:17:58;0.50;;;0.30;;
11171;SDS011;5642;50.830;12.082;2023-04-24T09:20:24;0.38;;;0.38;;
11171;SDS011;5642;50.830;12.082;2023-04-24T09:22:53;0.10;;;0.10;;
11171;SDS011;5642;50.830;12.082;2023-04-24T09:25:20;0.30;;;0.30;;
11171;SDS011;5642;50.830;12.082;2023-04-24T09:27:50;0.40;;;0.40;;
11171;SDS011;5642;50.830;12.082;2023-04-24T09:30:22;0.30;;;0.30;;
11171;SDS011;5642;50.830;12.082;2023-04-24T09:32:48;0.30;;;0.30;;
11171;SDS011;5642;50.830;12.082;2023-04-24T09:35:16;0.50;;;0.40;;
11171;SDS011;5642;50.830;12.082;2023-04-24T09:37:42;0.40;;;0.40;;
11171;SDS011;5642;50.830;12.082;2023-04-24T09:40:19;0.20;;;0.20;;
11171;SDS011;5642;50.830;12.082;2023-04-24T09:42:52;0.30;;;0.30;;
11171;SDS011;5642;50.830;12.082;2023-04-24T09:45:19;0.80;;;0.32;;
11171;SDS011;5642;50.830;12.082;2023-04-24T09:47:46;0.68;;;0.40;;
11171;SDS011;5642;50.830;12.082;2023-04-24T09:53:02;0.40;;;0.40;;
11171;SDS011;5642;50.830;12.082;2023-04-24T09:55:30;0.50;;;0.50;;
11171;SDS011;5642;50.830;12.082;2023-04-24T09:57:57;0.30;;;0.30;;
11171;SDS011;5642;50.830;12.082;2023-04-24T10:00:26;0.77;;;0.43;;
11171;SDS011;5642;50.830;12.082;2023-04-24T10:02:57;0.30;;;0.30;;
11171;SDS011;5642;50.830;12.082;2023-04-24T10:05:28;0.30;;;0.30;;
11171;SDS011;5642;50.830;12.082;2023-04-24T10:07:57;0.20;;;0.20;;
11171;SDS011;5642;50.830;12.082;2023-04-24T10:10:31;0.50;;;0.50;;
11171;SDS011;5642;50.830;12.082;2023-04-24T10:12:59;0.50;;;0.50;;
11171;SDS011;5642;50.830;12.082;2023-04-24T10:15:26;0.40;;;0.40;;
11171;SDS011;5642;50.830;12.082;2023-04-24T10:17:52;0.70;;;0.45;;
11171;SDS011;5642;50.830;12.082;2023-04-24T10:20:23;0.40;;;0.40;;
11171;SDS011;5642;50.830;12.082;2023-04-24T10:22:52;0.40;;;0.40;;
11171;SDS011;5642;50.830;12.082;2023-04-24T10:25:20;0.73;;;0.50;;
11171;SDS011;5642;50.830;12.082;2023-04-24T10:27:48;0.40;;;0.40;;
11171;SDS011;5642;50.830;12.082;2023-04-24T10:30:15;0.30;;;0.30;;
11171;SDS011;5642;50.830;12.082;2023-04-24T10:32:44;0.20;;;0.20;;
11171;SDS011;5642;50.830;12.082;2023-04-24T10:35:15;0.40;;;0.40;;
11171;SDS011;5642;50.830;12.082;2023-04-24T10:37:45;0.20;;;0.20;;
11171;SDS011;5642;50.830;12.082;2023-04-24T10:40:17;0.47;;;0.47;;
11171;SDS011;5642;50.830;12.082;2023-04-24T10:42:48;0.30;;;0.30;;
11171;SDS011;5642;50.830;12.082;2023-04-24T10:45:17;0.30;;;0.30;;
11171;SDS011;5642;50.830;12.082;2023-04-24T10:48:07;0.40;;;0.40;;
11171;SDS011;5642;50.830;12.082;2023-04-24T10:50:51;0.40;;;0.30;;
11171;SDS011;5642;50.830;12.082;2023-04-24T10:53:18;0.30;;;0.30;;
11171;SDS011;5642;50.830;12.082;2023-04-24T10:58:21;0.40;;;0.40;;
11171;SDS011;5642;50.830;12.082;2023-04-24T11:00:59;0.40;;;0.40;;
11171;SDS011;5642;50.830;12.082;2023-04-24T11:03:30;0.40;;;0.40;;
11171;SDS011;5642;50.830;12.082;2023-04-24T11:05:59;0.50;;;0.43;;
11171;SDS011;5642;50.830;12.082;2023-04-24T11:08:39;0.40;;;0.40;;
11171;SDS011;5642;50.830;12.082;2023-04-24T11:11:12;0.50;;;0.50;;
11171;SDS011;5642;50.830;12.082;2023-04-24T11:16:32;0.57;;;0.30;;
11171;SDS011;5642;50.830;12.082;2023-04-24T11:21:43;0.20;;;0.20;;
11171;SDS011;5642;50.830;12.082;2023-04-24T11:24:25;0.28;;;0.28;;
11171;SDS011;5642;50.830;12.082;2023-04-24T11:27:14;0.20;;;0.20;;
11171;SDS011;5642;50.830;12.082;2023-04-24T11:29:51;0.35;;;0.35;;
11171;SDS011;5642;50.830;12.082;2023-04-24T11:32:27;1.00;;;0.47;;
11171;SDS011;5642;50.830;12.082;2023-04-24T11:35:16;0.43;;;0.40;;
11171;SDS011;5642;50.830;12.082;2023-04-24T11:37:43;0.40;;;0.40;;
11171;SDS011;5642;50.830;12.082;2023-04-24T11:40:17;0.50;;;0.50;;
11171;SDS011;5642;50.830;12.082;2023-04-24T11:42:54;0.50;;;0.50;;
11171;SDS011;5642;50.830;12.082;2023-04-24T11:45:28;0.60;;;0.50;;
11171;SDS011;5642;50.830;12.082;2023-04-24T11:47:56;0.52;;;0.50;;
11171;SDS011;5642;50.830;12.082;2023-04-24T11:50:27;0.30;;;0.30;;
11171;SDS011;5642;50.830;12.082;2023-04-24T11:52:54;0.40;;;0.40;;
11171;SDS011;5642;50.830;12.082;2023-04-24T11:57:50;0.65;;;0.40;;
11171;SDS011;5642;50.830;12.082;2023-04-24T12:00:23;0.82;;;0.70;;
11171;SDS011;5642;50.830;12.082;2023-04-24T12:03:03;0.32;;;0.32;;
11171;SDS011;5642;50.830;12.082;2023-04-24T12:05:31;0.52;;;0.52;;
11171;SDS011;5642;50.830;12.082;2023-04-24T12:07:57;0.38;;;0.38;;
11171;SDS011;5642;50.830;12.082;2023-04-24T12:10:33;0.20;;;0.20;;
11171;SDS011;5642;50.830;12.082;2023-04-24T12:13:03;0.38;;;0.38;;
11171;SDS011;5642;50.830;12.082;2023-04-24T12:15:29;0.43;;;0.30;;
11171;SDS011;5642;50.830;12.082;2023-04-24T12:17:58;0.38;;;0.38;;
11171;SDS011;5642;50.830;12.082;2023-04-24T12:20:26;6.75;;;0.55;;
11171;SDS011;5642;50.830;12.082;2023-04-24T12:22:58;0.40;;;0.40;;
11171;SDS011;5642;50.830;12.082;2023-04-24T12:25:26;0.50;;;0.50;;
11171;SDS011;5642;50.830;12.082;2023-04-24T12:27:54;0.30;;;0.30;;
11171;SDS011;5642;50.830;12.082;2023-04-24T12:30:40;0.43;;;0.43;;
11171;SDS011;5642;50.830;12.082;2023-04-24T12:33:09;0.35;;;0.35;;
11171;SDS011;5642;50.830;12.082;2023-04-24T12:35:36;0.50;;;0.50;;
11171;SDS011;5642;50.830;12.082;2023-04-24T12:38:10;0.50;;;0.50;;
11171;SDS011;5642;50.830;12.082;2023-04-24T12:40:40;0.50;;;0.50;;
11171;SDS011;5642;50.830;12.082;2023-04-24T12:43:14;0.40;;;0.40;;
11171;SDS011;5642;50.830;12.082;2023-04-24T12:45:44;0.52;;;0.40;;
11171;SDS011;5642;50.830;12.082;2023-04-24T12:48:11;0.40;;;0.40;;
11171;SDS011;5642;50.830;12.082;2023-04-24T12:50:38;0.38;;;0.38;;
11171;SDS011;5642;50.830;12.082;2023-04-24T12:53:04;0.98;;;0.68;;
11171;SDS011;5642;50.830;12.082;2023-04-24T12:55:31;0.43;;;0.43;;
11171;SDS011;5642;50.830;12.082;2023-04-24T12:57:57;0.40;;;0.40;;
11171;SDS011;5642;50.830;12.082;2023-04-24T13:00:24;0.63;;;0.45;;
11171;SDS011;5642;50.830;12.082;2023-04-24T13:02:50;0.43;;;0.43;;
11171;SDS011;5642;50.830;12.082;2023-04-24T13:05:16;0.28;;;0.28;;
11171;SDS011;5642;50.830;12.082;2023-04-24T13:07:42;0.50;;;0.50;;
11171;SDS011;5642;50.830;12.082;2023-04-24T13:10:08;0.40;;;0.40;;
11171;SDS011;5642;50.830;12.082;2023-04-24T13:12:35;0.50;;;0.50;;
11171;SDS011;5642;50.830;12.082;2023-04-24T13:15:03;0.40;;;0.40;;
11171;SDS011;5642;50.830;12.082;2023-04-24T13:17:29;0.40;;;0.40;;
11171;SDS011;5642;50.830;12.082;2023-04-24T13:19:55;1.10;;;0.40;;
11171;SDS011;5642;50.830;12.082;2023-04-24T13:22:22;0.40;;;0.40;;
11171;SDS011;5642;50.830;12.082;2023-04-24T13:24:48;0.38;;;0.38;;
11171;SDS011;5642;50.830;12.082;2023-04-24T13:27:15;0.70;;;0.70;;
11171;SDS011;5642;50.830;12.082;2023-04-24T13:29:42;0.90;;;0.60;;
11171;SDS011;5642;50.830;12.082;2023-04-24T13:32:08;0.50;;;0.50;;
11171;SDS011;5642;50.830;12.082;2023-04-24T13:34:34;0.40;;;0.40;;
11171;SDS011;5642;50.830;12.082;2023-04-24T13:37:01;0.40;;;0.40;;
11171;SDS011;5642;50.830;12.082;2023-04-24T13:39:29;0.40;;;0.40;;
11171;SDS011;5642;50.830;12.082;2023-04-24T13:41:56;0.43;;;0.43;;
11171;SDS011;5642;50.830;12.082;2023-04-24T13:44:24;0.43;;;0.43;;
11171;SDS011;5642;50.830;12.082;2023-04-24T13:46:51;0.55;;;0.55;;
11171;SDS011;5642;50.830;12.082;2023-04-24T13:49:19;0.50;;;0.50;;
11171;SDS011;5642;50.830;12.082;2023-04-24T13:51:46;0.50;;;0.50;;
11171;SDS011;5642;50.830;12.082;2023-04-24T13:54:12;0.45;;;0.45;;
11171;SDS011;5642;50.830;12.082;2023-04-24T13:56:39;0.50;;;0.50;;
11171;SDS011;5642;50.830;12.082;2023-04-24T13:59:06;0.32;;;0.30;;
11171;SDS011;5642;50.830;12.082;2023-04-24T14:01:32;0.50;;;0.40;;
11171;SDS011;5642;50.830;12.082;2023-04-24T14:03:58;0.45;;;0.45;;
11171;SDS011;5642;50.830;12.082;2023-04-24T14:06:25;0.40;;;0.40;;
11171;SDS011;5642;50.830;12.082;2023-04-24T14:08:51;0.77;;;0.50;;
11171;SDS011;5642;50.830;12.082;2023-04-24T14:11:18;0.52;;;0.52;;
11171;SDS011;5642;50.830;12.082;2023-04-24T14:13:45;0.40;;;0.40;;
11171;SDS011;5642;50.830;12.082;2023-04-24T14:16:11;0.50;;;0.50;;
11171;SDS011;5642;50.830;12.082;2023-04-24T14:18:37;0.50;;;0.50;;
11171;SDS011;5642;50.830;12.082;2023-04-24T14:21:04;0.55;;;0.55;;
11171;SDS011;5642;50.830;12.082;2023-04-24T14:23:30;0.40;;;0.40;;
11171;SDS011;5642;50.830;12.082;2023-04-24T14:25:59;0.30;;;0.30;;
11171;SDS011;5642;50.830;12.082;2023-04-24T14:28:25;0.50;;;0.50;;
11171;SDS011;5642;50.830;12.082;2023-04-24T14:30:52;0.40;;;0.40;;
11171;SDS011;5642;50.830;12.082;2023-04-24T14:33:18;0.60;;;0.60;;
11171;SDS011;5642;50.830;12.082;2023-04-24T14:35:47;0.50;;;0.50;;
11171;SDS011;5642;50.830;12.082;2023-04-24T14:38:13;0.43;;;0.43;;
11171;SDS011;5642;50.830;12.082;2023-04-24T14:40:39;0.52;;;0.52;;
11171;SDS011;5642;50.830;12.082;2023-04-24T14:43:05;1.80;;;0.40;;
11171;SDS011;5642;50.830;12.082;2023-04-24T14:45:32;0.57;;;0.57;;
11171;SDS011;5642;50.830;12.082;2023-04-24T14:47:58;0.50;;;0.50;;
11171;SDS011;5642;50.830;12.082;2023-04-24T14:50:25;0.60;;;0.60;;
11171;SDS011;5642;50.830;12.082;2023-04-24T14:52:54;0.50;;;0.50;;
11171;SDS011;5642;50.830;12.082;2023-04-24T14:55:23;0.40;;;0.40;;
11171;SDS011;5642;50.830;12.082;2023-04-24T14:57:50;0.50;;;0.50;;
11171;SDS011;5642;50.830;12.082;2023-04-24T15:00:17;0.45;;;0.45;;
11171;SDS011;5642;50.830;12.082;2023-04-24T15:02:43;0.55;;;0.50;;
11171;SDS011;5642;50.830;12.082;2023-04-24T15:05:12;0.50;;;0.50;;